Time;durP1;ratioP1;P1;durP2;ratioP2;P2;SDS_P1;SDS_P2;PMS_P1;PMS_P2;Temp;Humidity;BMP_temperature;BMP_pressure;BME280_temperature;BME280_humidity;BME280_pressure;Samples;Min_cycle;Max_cycle;Signal;HPM_P1;HPM_P2
2022/05/10 00:02:00;;;;;;;30.15;14.35;;;;;;;13.77;76.31;100492.56;6296880;22;19998;-79
2022/05/10 00:04:26;;;;;;;35.75;18.55;;;;;;;13.71;75.80;100488.19;6306041;22;20363;-77
2022/05/10 00:07:29;;;;;;;28.25;16.05;;;;;;;13.63;75.62;100481.38;6318581;22;20010;-81
2022/05/10 00:09:59;;;;;;;31.13;16.98;;;;;;;13.42;75.41;100454.03;6338945;22;20033;-81
2022/05/10 00:13:26;;;;;;;;;;;;;;;;;;;;;
2022/05/10 00:16:11;;;;;;;26.00;14.95;;;;;;;13.48;75.24;100470.47;6316308;22;20022;-76
2022/05/10 00:18:49;;;;;;;29.80;15.60;;;;;;;13.41;75.46;100457.06;6318188;22;20052;-76
2022/05/10 00:21:24;;;;;;;25.80;14.60;;;;;;;13.37;75.46;100456.81;6317305;22;20089;-77
2022/05/10 00:23:53;;;;;;;;;;;;;;;13.48;75.51;100473.22;6315092;22;20007;-78
2022/05/10 00:26:28;;;;;;;19.27;12.75;;;;;;;13.40;74.89;100449.94;6344017;22;19913;-77
2022/05/10 00:29:04;;;;;;;;;;;;;;;;;;;;;
2022/05/10 00:31:31;;;;;;;29.27;15.68;;;;;;;13.23;75.03;100440.13;6345259;22;20022;-77
2022/05/10 00:34:12;;;;;;;;;;;;;;;;;;;;;
2022/05/10 00:36:38;;;;;;;25.90;14.90;;;;;;;13.36;75.35;100477.16;6344218;22;20030;-76
2022/05/10 00:49:11;;;;;;;;;;;;;;;;;;;;;
2022/05/10 00:52:00;;;;;;;;;;;;;;;;;;;;;
2022/05/10 00:55:10;;;;;;;;;;;;;;;;;;;;;
2022/05/10 01:01:28;;;;;;;22.25;13.40;;;;;;;12.96;76.64;100459.75;6215853;22;20009;-79
2022/05/10 01:04:07;;;;;;;23.52;12.77;;;;;;;12.65;76.71;100407.75;6347773;22;20342;-77
2022/05/10 01:06:46;;;;;;;19.98;12.65;;;;;;;12.74;76.99;100427.19;6323886;22;20469;-82
2022/05/10 01:13:28;;;;;;;19.98;12.02;;;;;;;12.90;76.30;100453.44;6181147;23;20087;-81
2022/05/10 01:16:22;;;;;;;20.15;12.23;;;;;;;12.87;76.35;100442.22;6078197;23;20073;-79
2022/05/10 01:19:14;;;;;;;21.63;12.68;;;;;;;12.60;76.76;100399.53;6322126;22;20013;-85
2022/05/10 01:22:18;;;;;;;24.13;13.23;;;;;;;12.79;77.63;100434.56;6148752;22;20012;-82
2022/05/10 01:25:22;;;;;;;24.95;13.90;;;;;;;12.66;77.48;100428.59;6211601;22;20001;-82
2022/05/10 01:28:09;;;;;;;23.98;13.52;;;;;;;12.65;78.34;100429.69;6239348;22;20030;-78
2022/05/10 01:30:38;;;;;;;26.60;13.50;;;;;;;12.53;77.84;100410.00;6317014;22;19999;-80
2022/05/10 01:34:02;;;;;;;;;;;;;;;;;;;;;
2022/05/10 01:53:54;;;;;;;25.20;13.27;;;;;;;12.39;80.13;100404.25;6100197;23;20049;-76
2022/05/10 01:56:24;;;;;;;22.75;14.07;;;;;;;12.27;79.73;100385.38;6075139;23;20409;-78
2022/05/10 02:17:10;;;;;;;22.33;12.82;;;;;;;12.32;81.02;100393.56;6071089;23;20070;-81
2022/05/10 02:20:32;;;;;;;;;;;;;;;;;;;;;
2022/05/10 02:23:37;;;;;;;26.58;14.02;;;;;;;12.28;81.57;100387.03;6130435;23;20020;-78
2022/05/10 02:27:10;;;;;;;;;;;;;;;;;;;;;
2022/05/10 02:30:40;;;;;;;23.45;12.80;;;;;;;12.22;82.14;100382.63;6112426;23;20029;-78
2022/05/10 02:37:14;;;;;;;;;;;;;;;;;;;;;
2022/05/10 02:40:57;;;;;;;;;;;;;;;;;;;;;
2022/05/10 02:44:05;;;;;;;;;;;;;;;;;;;;;
2022/05/10 02:50:43;;;;;;;;;;;;;;;;;;;;;
2022/05/10 02:57:22;;;;;;;14.57;10.30;;;;;;;11.94;83.57;100343.78;6151375;23;20024;-78
2022/05/10 03:00:29;;;;;;;13.20;9.13;;;;;;;12.13;83.42;100381.56;6064664;23;20033;-78
2022/05/10 03:07:39;;;;;;;;;;;;;;;;;;;;;
2022/05/10 03:18:19;;;;;;;;;;;;;;;;;;;;;
2022/05/10 03:24:35;;;;;;;11.43;8.15;;;;;;;12.18;84.35;100365.13;5901368;24;20021;-77
2022/05/10 03:27:56;;;;;;;;;;;;;;;;;;;;;
2022/05/10 03:31:27;;;;;;;14.63;7.68;;;;;;;11.96;84.43;100325.16;5957154;24;20065;-76
2022/05/10 03:37:58;;;;;;;12.98;7.90;;;;;;;12.02;85.07;100318.56;5958475;24;20023;-77
2022/05/10 03:41:15;;;;;;;14.27;8.38;;;;;;;12.00;84.72;100312.53;5924171;24;20340;-75
2022/05/10 03:47:56;;;;;;;13.40;7.35;;;;;;;12.20;85.17;100335.50;6013688;23;20018;-76
2022/05/10 03:57:45;;;;;;;9.23;5.80;;;;;;;12.10;85.20;100295.22;6153265;23;20611;-76
2022/05/10 04:01:07;;;;;;;;;;;;;;;;;;;;;
2022/05/10 04:04:23;;;;;;;;;;;;;;;;;;;;;
2022/05/10 04:18:53;;;;;;;;;;;;;;;;;;;;;
2022/05/10 04:25:18;;;;;;;;;;;;;;;;;;;;;
2022/05/10 04:34:51;;;;;;;14.65;7.68;;;;;;;11.95;87.94;100301.56;6000287;23;20019;-76
2022/05/10 04:37:16;;;;;;;15.30;7.93;;;;;;;12.03;89.09;100331.16;6020774;23;20015;-76
2022/05/10 04:43:05;;;;;;;;;;;;;;;;;;;;;
2022/05/10 04:46:06;;;;;;;;;;;;;;;;;;;;;
2022/05/10 04:48:33;;;;;;;18.90;8.50;;;;;;;11.59;91.50;100293.38;6160236;23;20033;-76
2022/05/10 04:51:21;;;;;;;11.77;8.23;;;;;;;11.81;91.25;100328.72;6160745;23;20040;-75
2022/05/10 04:54:20;;;;;;;;;;;;;;;;;;;;;
2022/05/10 04:57:01;;;;;;;;;;;;;;;;;;;;;
2022/05/10 04:59:36;;;;;;;13.50;9.45;;;;;;;11.72;92.99;100313.91;6287216;22;20041;-75
2022/05/10 05:02:13;;;;;;;21.63;9.38;;;;;;;11.78;93.63;100317.47;6239420;22;20015;-75
2022/05/10 05:04:42;;;;;;;14.60;8.13;;;;;;;11.75;94.05;100312.56;6260576;22;20007;-75
2022/05/10 05:07:24;;;;;;;15.88;8.55;;;;;;;11.69;93.94;100303.53;6313804;22;20003;-75
2022/05/10 05:09:50;;;;;;;21.70;9.65;;;;;;;11.45;94.94;100278.66;6312389;22;19983;-75
2022/05/10 05:12:37;;;;;;;15.60;8.25;;;;;;;11.68;95.39;100318.31;6284047;22;19991;-74
2022/05/10 05:15:20;;;;;;;16.02;8.23;;;;;;;11.49;96.19;100291.50;6285984;22;19999;-75
2022/05/10 05:17:55;;;;;;;16.85;8.60;;;;;;;11.61;95.35;100307.66;6313923;22;20418;-74
2022/05/10 05:20:26;;;;;;;17.33;8.80;;;;;;;11.77;95.50;100332.25;6286056;22;20011;-74
2022/05/10 05:23:18;;;;;;;14.27;7.60;;;;;;;11.65;95.49;100308.75;6284607;22;20003;-75
2022/05/10 05:26:12;;;;;;;;;;;;;;;;;;;;;
2022/05/10 05:28:38;;;;;;;19.60;7.60;;;;;;;11.92;95.35;100342.41;6313340;22;20029;-74
2022/05/10 05:31:19;;;;;;;;;;;;;;;;;;;;;
2022/05/10 05:33:45;;;;;;;12.20;7.72;;;;;;;11.72;95.89;100302.16;6312366;22;20045;-75
2022/05/10 05:36:21;;;;;;;;;;;;;;;;;;;;;
2022/05/10 05:38:56;;;;;;;14.38;6.65;;;;;;;11.66;96.53;100298.59;6313172;22;20027;-74
2022/05/10 05:41:24;;;;;;;10.27;6.60;;;;;;;11.74;96.26;100310.91;6287985;22;20018;-74
2022/05/10 05:44:23;;;;;;;21.88;7.55;;;;;;;11.70;96.72;100300.50;6286322;22;20015;-74
2022/05/10 05:46:49;;;;;;;11.80;7.15;;;;;;;11.75;96.60;100307.88;6286409;22;20011;-74
2022/05/10 05:49:15;;;;;;;16.15;7.13;;;;;;;11.99;96.85;100341.03;6283594;22;20086;-75
2022/05/10 05:51:48;;;;;;;23.15;6.90;;;;;;;11.95;96.79;100334.47;6287968;22;20003;-76
2022/05/10 05:54:26;;;;;;;;;;;;;;;;;;;;;
2022/05/10 05:57:15;;;;;;;23.20;7.47;;;;;;;11.98;96.43;100338.56;6313374;22;20046;-76
2022/05/10 05:59:43;;;;;;;15.10;6.88;;;;;;;11.86;95.98;100320.47;6263800;22;20019;-81
2022/05/10 06:02:24;;;;;;;12.38;6.38;;;;;;;11.80;96.60;100296.94;6286967;22;20404;-82
2022/05/10 06:05:16;;;;;;;17.48;7.13;;;;;;;12.08;96.48;100351.44;6284419;22;20008;-72
2022/05/10 06:07:52;;;;;;;;;;;;;;;;;;;;;
2022/05/10 06:10:27;;;;;;;13.65;6.43;;;;;;;11.79;96.21;100305.44;6310397;22;20003;-76
2022/05/10 06:13:03;;;;;;;12.82;6.43;;;;;;;11.85;96.71;100310.59;6282368;22;20030;-77
2022/05/10 06:15:49;;;;;;;23.58;7.30;;;;;;;12.06;97.51;100340.72;6299997;22;20662;-75
2022/05/10 06:18:17;;;;;;;15.25;6.85;;;;;;;12.01;97.35;100349.78;6312305;22;20034;-76
2022/05/10 06:20:42;;;;;;;11.57;6.30;;;;;;;11.96;97.74;100330.63;6315840;22;20016;-75
2022/05/10 06:23:15;;;;;;;18.60;6.65;;;;;;;11.84;98.25;100310.88;6340034;22;20316;-76
2022/05/10 06:25:43;;;;;;;15.20;6.80;;;;;;;12.05;98.16;100341.84;6316825;22;20048;-75
2022/05/10 06:28:11;;;;;;;7.85;6.00;;;;;;;11.86;98.30;100316.94;6315763;22;20003;-76
2022/05/10 06:30:37;;;;;;;17.52;6.93;;;;;;;11.99;98.91;100341.03;6314442;22;20007;-75
2022/05/10 06:33:05;;;;;;;17.15;7.20;;;;;;;12.00;98.97;100342.69;6290225;22;20447;-75
2022/05/10 06:35:30;;;;;;;16.20;7.10;;;;;;;11.89;99.84;100319.09;6290327;22;20082;-75
2022/05/10 06:40:40;;;;;;;13.70;7.10;;;;;;;11.94;100.00;100327.34;6318152;22;20071;-72
2022/05/10 06:43:18;;;;;;;12.38;7.13;;;;;;;12.04;100.00;100338.25;6314687;22;20007;-78
2022/05/10 06:45:44;;;;;;;11.95;6.75;;;;;;;11.81;100.00;100295.00;6342069;22;20003;-74
2022/05/10 06:48:10;;;;;;;15.35;6.47;;;;;;;11.97;100.00;100310.34;6342103;22;20022;-76
2022/05/10 06:54:01;;;;;;;8.55;6.20;;;;;;;11.87;100.00;100297.47;6260463;22;20007;-76
2022/05/10 06:56:31;;;;;;;15.40;6.35;;;;;;;12.02;100.00;100329.50;6343790;22;20002;-75
2022/05/10 06:59:50;;;;;;;;;;;;;;;;;;;;;
2022/05/10 07:06:04;;;;;;;11.95;6.78;;;;;;;12.14;100.00;100331.13;6187676;23;20020;-75
2022/05/10 07:08:32;;;;;;;12.85;6.88;;;;;;;11.92;100.00;100302.09;6163291;23;20088;-76
2022/05/10 07:11:55;;;;;;;17.23;6.90;;;;;;;11.92;100.00;100302.09;6338806;22;20015;-77
2022/05/10 07:14:21;;;;;;;14.82;6.78;;;;;;;12.11;100.00;100321.53;6345118;22;20002;-75
2022/05/10 07:17:19;;;;;;;9.52;6.00;;;;;;;12.14;100.00;100326.47;6344092;22;20006;-77
2022/05/10 07:19:44;;;;;;;11.57;6.25;;;;;;;12.31;100.00;100331.63;6321254;22;20494;-75
2022/05/10 07:22:13;;;;;;;9.82;6.28;;;;;;;12.32;100.00;100318.72;6318711;22;20019;-75
2022/05/10 07:24:58;;;;;;;13.95;6.22;;;;;;;12.33;100.00;100318.44;6317684;22;20006;-75
2022/05/10 07:27:24;;;;;;;7.13;4.85;;;;;;;12.24;100.00;100309.16;6294658;22;20037;-75
2022/05/10 07:29:57;;;;;;;9.77;5.22;;;;;;;12.23;100.00;100299.28;6317695;22;20003;-75
2022/05/10 07:32:34;;;;;;;7.88;5.03;;;;;;;12.38;100.00;100326.66;6316860;22;20261;-74
2022/05/10 07:36:23;;;;;;;8.50;5.22;;;;;;;12.17;100.00;100281.22;6319120;22;20325;-73
2022/05/10 07:38:21;;;;;;;9.98;5.28;;;;;;;12.23;100.00;100291.06;6342536;22;20045;-75
2022/05/10 07:41:26;;;;;;;11.35;5.13;;;;;;;12.36;100.00;100323.38;6341302;22;19995;-76
2022/05/10 07:43:59;;;;;;;7.63;4.10;;;;;;;12.43;100.00;100330.50;6297323;22;19997;-75
2022/05/10 07:46:26;;;;;;;6.77;4.23;;;;;;;12.35;100.00;100309.94;6342313;22;20037;-74
2022/05/10 07:48:52;;;;;;;5.32;4.35;;;;;;;12.32;100.00;100305.81;6343464;22;20057;-74
2022/05/10 07:51:21;;;;;;;6.78;4.25;;;;;;;12.51;100.00;100341.69;6345967;22;20003;-74
2022/05/10 07:53:46;;;;;;;7.40;4.60;;;;;;;12.42;100.00;100315.13;6313048;22;19999;-73
2022/05/10 07:56:12;;;;;;;4.30;3.65;;;;;;;12.45;100.00;100320.06;6316229;22;20005;-75
2022/05/10 07:58:41;;;;;;;7.93;4.47;;;;;;;12.55;100.00;100341.94;6343440;22;20038;-76
2022/05/10 08:04:03;;;;;;;7.72;4.13;;;;;;;12.45;100.00;100326.34;6297369;22;20007;-73
2022/05/10 08:06:29;;;;;;;10.23;4.85;;;;;;;12.55;100.00;100325.50;6343020;22;19998;-73
2022/05/10 08:09:14;;;;;;;6.38;4.15;;;;;;;12.51;100.00;100302.47;6315333;22;20003;-75
2022/05/10 08:11:43;;;;;;;7.78;5.25;;;;;;;12.64;100.00;100318.28;6340876;22;20085;-75
2022/05/10 08:14:29;;;;;;;;;;;;;;;;;;;;;
2022/05/10 08:16:54;;;;;;;11.20;4.78;;;;;;;12.82;100.00;100343.44;6341869;22;20452;-76
2022/05/10 08:19:22;;;;;;;10.70;5.20;;;;;;;12.79;100.00;100325.66;6341968;22;20002;-75
2022/05/10 08:22:01;;;;;;;;;;;;;;;;;;;;;
2022/05/10 08:24:27;;;;;;;8.75;4.30;;;;;;;12.79;100.00;100319.31;6343699;22;20034;-74
2022/05/10 08:26:56;;;;;;;6.35;4.47;;;;;;;12.96;100.00;100347.22;6344141;22;20013;-74
2022/05/10 08:29:24;;;;;;;8.90;4.57;;;;;;;12.91;100.00;100330.78;6318637;22;20007;-74
2022/05/10 08:31:59;;;;;;;5.05;3.80;;;;;;;12.82;100.00;100303.13;6314578;22;20006;-73
2022/05/10 08:35:10;;;;;;;;;;;;;;;;;;;;;
2022/05/10 08:37:37;;;;;;;11.38;4.63;;;;;;;13.17;100.00;100338.84;6338188;22;20086;-72
2022/05/10 08:40:10;;;;;;;8.73;3.90;;;;;;;13.05;100.00;100334.53;6285688;22;20036;-74
2022/05/10 08:42:45;;;;;;;6.93;4.10;;;;;;;13.03;99.77;100338.66;6344196;22;20002;-74
2022/05/10 08:45:42;;;;;;;5.55;3.30;;;;;;;12.97;99.76;100331.59;6314126;22;20002;-76
2022/05/10 08:48:29;;;;;;;;;;;;;;;;;;;;;
2022/05/10 08:51:18;;;;;;;3.70;2.78;;;;;;;12.87;100.00;100305.81;6322211;22;20034;-76
2022/05/10 08:53:56;;;;;;;5.32;3.50;;;;;;;12.93;99.95;100314.84;6318005;22;20003;-77
2022/05/10 08:57:09;;;;;;;6.13;2.83;;;;;;;13.02;99.75;100346.06;6316549;22;20002;-77
2022/05/10 09:00:01;;;;;;;6.85;2.88;;;;;;;13.04;100.00;100337.53;6311401;22;20011;-74
2022/05/10 09:02:51;;;;;;;3.05;2.53;;;;;;;13.12;100.00;100345.19;6309651;22;19995;-74
2022/05/10 09:05:28;;;;;;;2.75;2.03;;;;;;;13.13;100.00;100351.50;6307240;22;20007;-74
2022/05/10 09:08:31;;;;;;;3.83;2.33;;;;;;;13.18;99.55;100360.50;6303380;22;20010;-73
2022/05/10 09:11:07;;;;;;;2.88;2.03;;;;;;;13.25;99.67;100338.25;6303355;22;20034;-74
2022/05/10 09:13:35;;;;;;;3.20;2.08;;;;;;;13.15;98.92;100322.66;6304019;22;20010;-74
2022/05/10 09:16:16;;;;;;;3.22;2.15;;;;;;;13.30;99.25;100318.97;6303274;22;20003;-75
2022/05/10 09:18:45;;;;;;;6.13;2.42;;;;;;;13.69;99.17;100342.84;6302862;22;19999;-74
2022/05/10 09:22:14;;;;;;;;;;;;;;;;;;;;;
2022/05/10 09:25:09;;;;;;;1.88;1.67;;;;;;;13.94;96.96;100329.97;6185471;23;20011;-74
2022/05/10 09:27:35;;;;;;;6.30;2.38;;;;;;;14.06;96.41;100338.66;6265059;22;20325;-76
2022/05/10 09:30:01;;;;;;;2.65;1.90;;;;;;;13.87;96.04;100333.06;6309474;22;20007;-74
2022/05/10 09:35:23;;;;;;;3.92;0.77;;;;;;;13.42;95.81;100365.34;6285832;22;20048;-74
2022/05/10 09:38:16;;;;;;;1.48;0.80;;;;;;;13.31;96.54;100355.50;6307405;22;19999;-74
2022/05/10 09:40:52;;;;;;;2.03;0.60;;;;;;;13.15;95.89;100354.78;6310696;22;19983;-74
2022/05/10 09:43:32;;;;;;;2.35;0.80;;;;;;;13.05;94.38;100358.41;6310052;22;20069;-74
2022/05/10 09:46:34;;;;;;;;;;;;;;;;;;;;;
2022/05/10 09:49:56;;;;;;;3.20;0.95;;;;;;;13.69;92.07;100364.81;6309670;22;20034;-74
2022/05/10 09:55:32;;;;;;;5.78;1.15;;;;;;;15.44;83.90;100362.69;6216372;23;20059;-76
2022/05/10 09:58:30;;;;;;;4.03;1.00;;;;;;;15.47;80.48;100348.31;6292118;22;20011;-74
2022/05/10 10:01:09;;;;;;;;;;;;;;;;;;;;;
2022/05/10 10:04:02;;;;;;;6.45;1.10;;;;;;;15.87;78.64;100358.97;6312593;22;20038;-74
2022/05/10 10:07:04;;;;;;;4.03;0.90;;;;;;;16.03;77.49;100349.31;6308277;22;20265;-74
2022/05/10 10:09:34;;;;;;;3.90;1.10;;;;;;;15.53;77.16;100363.63;6310379;22;19991;-74
2022/05/10 10:12:01;;;;;;;2.10;0.80;;;;;;;15.36;79.38;100369.72;6307767;22;20030;-73
2022/05/10 10:17:40;;;;;;;3.13;0.90;;;;;;;16.12;73.19;100365.13;6174564;23;20127;-75
2022/05/10 10:20:24;;;;;;;5.88;0.70;;;;;;;16.05;73.47;100382.91;6308426;22;20010;-76
2022/05/10 10:23:02;;;;;;;4.35;1.42;;;;;;;16.18;73.58;100375.78;6310049;22;20130;-73
2022/05/10 10:26:25;;;;;;;4.18;1.13;;;;;;;16.68;71.14;100357.69;6313019;22;20476;-74
2022/05/10 10:29:23;;;;;;;;;;;;;;;;;;;;;
2022/05/10 10:32:32;;;;;;;5.07;0.98;;;;;;;19.35;60.88;100381.13;6286804;22;20015;-75
2022/05/10 10:35:36;;;;;;;5.18;0.90;;;;;;;20.20;57.35;100381.66;6287584;22;20007;-75
2022/05/10 10:45:14;;;;;;;;;;;;;;;;;;;;;
2022/05/10 10:48:53;;;;;;;3.70;0.73;;;;;;;21.52;49.44;100378.91;6314332;22;20034;-75
2022/05/10 10:51:15;;;;;;;3.83;1.30;;;;;;;20.50;48.35;100373.34;6307140;22;20000;-74
2022/05/10 10:53:45;;;;;;;1.98;0.63;;;;;;;19.78;48.42;100375.84;6286661;22;20430;-74
2022/05/10 11:00:07;;;;;;;4.43;0.90;;;;;;;18.75;50.67;100390.13;6148643;23;20041;-74
2022/05/10 11:03:07;;;;;;;;;;;;;;;;;;;;;
2022/05/10 11:06:13;;;;;;;9.52;1.20;;;;;;;19.04;51.51;100388.75;6282336;22;20465;-76
2022/05/10 11:08:59;;;;;;;6.50;1.02;;;;;;;19.67;51.69;100392.84;6282991;22;20004;-76
2022/05/10 11:11:52;;;;;;;5.03;0.90;;;;;;;20.20;49.70;100389.97;6280375;22;19995;-75
2022/05/10 11:14:29;;;;;;;5.78;0.80;;;;;;;20.65;48.85;100394.19;6278926;22;20040;-75
2022/05/10 11:24:33;;;;;;;;;;;;;;;;;;;;;
2022/05/10 11:27:31;;;;;;;8.02;1.60;;;;;;;26.50;37.49;100398.56;6211440;23;20012;-75
2022/05/10 11:34:36;;;;;;;8.40;1.40;;;;;;;29.60;29.96;100396.94;6219657;23;20009;-75
2022/05/10 11:37:53;;;;;;;3.67;1.10;;;;;;;30.50;27.31;100379.38;6177539;23;20454;-75
2022/05/10 11:41:26;;;;;;;;;;;;;;;;;;;;;
2022/05/10 11:44:29;;;;;;;8.25;1.35;;;;;;;30.90;26.19;100411.16;6158774;23;20589;-75
2022/05/10 11:53:56;;;;;;;4.15;1.08;;;;;;;38.04;18.05;100406.75;6095900;23;20025;-75
2022/05/10 11:56:47;;;;;;;4.47;1.00;;;;;;;39.31;16.05;100423.22;6129972;23;20472;-72
2022/05/10 11:59:44;;;;;;;9.65;2.03;;;;;;;39.03;15.64;100390.75;6149517;23;20329;-73
2022/05/10 12:02:43;;;;;;;;;;;;;;;;;;;;;
2022/05/10 12:05:31;;;;;;;;;;;;;;;;;;;;;
2022/05/10 12:08:23;;;;;;;4.47;1.00;;;;;;;37.60;16.26;100399.94;6313615;22;20021;-73
2022/05/10 12:11:59;;;;;;;;;;;;;;;;;;;;;
2022/05/10 12:21:30;;;;;;;4.40;1.15;;;;;;;34.01;18.98;100396.97;6276855;22;20013;-72
2022/05/10 12:24:28;;;;;;;4.70;1.08;;;;;;;30.75;22.44;100391.44;6283446;22;20010;-73
2022/05/10 12:30:47;;;;;;;3.88;1.02;;;;;;;26.69;27.93;100369.63;6216234;23;20163;-75
2022/05/10 12:33:58;;;;;;;5.20;1.27;;;;;;;24.61;30.41;100359.56;6225699;22;20461;-73
2022/05/10 12:36:33;;;;;;;3.67;1.13;;;;;;;25.94;31.21;100367.16;6130516;23;20001;-74
2022/05/10 12:39:32;;;;;;;8.45;1.52;;;;;;;27.79;27.08;100388.34;6127461;23;20088;-74
2022/05/10 12:42:20;;;;;;;7.15;1.23;;;;;;;25.77;29.88;100365.63;6156114;23;20258;-73
2022/05/10 12:45:41;;;;;;;4.70;1.20;;;;;;;23.42;34.09;100367.63;6255776;22;20003;-73
2022/05/10 12:48:54;;;;;;;;;;;;;;;;;;;;;
2022/05/10 12:52:20;;;;;;;9.02;1.50;;;;;;;33.87;20.78;100365.97;6260050;22;20031;-73
2022/05/10 12:54:49;;;;;;;5.57;1.13;;;;;;;36.47;18.19;100381.50;6212630;23;19989;-71
2022/05/10 13:19:14;;;;;;;6.57;1.40;;;;;;;32.34;20.78;100337.81;6270277;22;20025;-75
2022/05/10 13:22:52;;;;;;;;;;;;;;;;;;;;;
2022/05/10 13:26:07;;;;;;;;;;;;;;;;;;;;;
2022/05/10 13:28:44;;;;;;;;;;;;;;;;;;;;;
2022/05/10 13:35:14;;;;;;;;;;;;;;;;;;;;;
2022/05/10 13:38:06;;;;;;;11.05;1.48;;;;;;;29.01;26.14;100347.16;6214641;23;20028;-77
2022/05/10 13:44:46;;;;;;;6.30;1.60;;;;;;;30.55;24.14;100328.16;6342668;22;20063;-77
2022/05/10 13:47:33;;;;;;;6.28;1.30;;;;;;;35.28;19.45;100333.88;6301519;22;19997;-77
2022/05/10 13:50:11;;;;;;;12.37;1.80;;;;;;;37.42;16.44;100330.00;6247508;22;20014;-77
2022/05/10 13:53:18;;;;;;;;;;;;;;;;;;;;;
2022/05/10 13:59:18;;;;;;;10.43;1.70;;;;;;;40.19;13.70;100312.66;6322850;22;20033;-76
2022/05/10 14:02:07;;;;;;;;;;;;;;;41.55;13.45;100342.19;6325804;22;20078;-76
2022/05/10 14:04:56;;;;;;;3.47;1.10;;;;;;;42.73;12.53;100321.06;6243740;22;19977;-75
2022/05/10 14:07:48;;;;;;;7.10;1.20;;;;;;;42.67;12.52;100340.25;6293738;22;20006;-77
2022/05/10 14:14:00;;;;;;;10.40;1.52;;;;;;;33.96;18.36;100305.88;6303565;22;20375;-75
2022/05/10 14:17:10;;;;;;;5.03;1.20;;;;;;;34.67;18.49;100334.22;6289957;22;20007;-74
2022/05/10 14:19:43;;;;;;;3.38;1.15;;;;;;;34.50;18.01;100290.78;6249222;22;20095;-75
2022/05/10 14:22:23;;;;;;;13.02;1.35;;;;;;;33.83;18.45;100288.66;6252671;22;20334;-76
2022/05/10 14:25:48;;;;;;;;;;;;;;;;;;;;;
2022/05/10 14:29:06;;;;;;;;;;;;;;;;;;;;;
2022/05/10 14:35:50;;;;;;;;;;;;;;;;;;;;;
2022/05/10 14:38:48;;;;;;;9.95;1.52;;;;;;;32.36;21.22;100303.44;6282170;22;20023;-78
2022/05/10 14:48:59;;;;;;;5.20;1.45;;;;;;;31.29;21.53;100277.53;6098475;23;20089;-78
2022/05/10 14:51:56;;;;;;;5.45;1.58;;;;;;;29.13;23.74;100283.28;6014233;23;20004;-78
2022/05/10 14:54:58;;;;;;;4.65;1.00;;;;;;;27.51;26.75;100260.44;6201096;22;20069;-79
2022/05/10 14:58:03;;;;;;;;;;;;;;;;;;;;;
2022/05/10 15:00:45;;;;;;;7.30;1.55;;;;;;;25.07;30.54;100263.88;6283482;22;20389;-76
2022/05/10 15:07:04;;;;;;;6.15;1.20;;;;;;;23.21;34.70;100244.25;6203729;23;20455;-76
2022/05/10 15:09:40;;;;;;;10.32;1.77;;;;;;;22.63;35.68;100254.56;6248339;22;20031;-76
2022/05/10 15:14:53;;;;;;;6.20;1.23;;;;;;;21.52;38.92;100273.19;6262713;22;20011;-77
2022/05/10 15:17:19;;;;;;;6.35;1.30;;;;;;;21.31;39.53;100285.16;6256897;22;20008;-76
2022/05/10 15:19:45;;;;;;;8.10;1.35;;;;;;;21.14;40.21;100279.75;6254702;22;20007;-75
2022/05/10 15:22:11;;;;;;;8.57;1.65;;;;;;;20.94;40.86;100268.31;6283511;22;20018;-76
2022/05/10 15:24:37;;;;;;;4.32;1.15;;;;;;;21.22;40.22;100281.66;6282448;22;20007;-77
2022/05/10 15:27:05;;;;;;;3.85;1.10;;;;;;;21.56;40.48;100268.56;6257139;22;19999;-76
2022/05/10 15:29:38;;;;;;;10.82;1.45;;;;;;;21.75;39.90;100268.81;6256213;22;20019;-76
2022/05/10 15:32:18;;;;;;;5.90;1.45;;;;;;;21.95;39.74;100253.19;6255835;22;20000;-76
2022/05/10 15:35:05;;;;;;;4.45;1.10;;;;;;;21.92;39.73;100253.09;6209747;22;20014;-75
2022/05/10 15:37:45;;;;;;;;;;;;;;;;;;;;;
2022/05/10 15:40:29;;;;;;;5.43;1.05;;;;;;;21.82;40.98;100259.09;6280213;22;20382;-76
2022/05/10 15:42:55;;;;;;;5.10;1.40;;;;;;;21.61;40.69;100237.72;6282078;22;20000;-76
2022/05/10 15:45:23;;;;;;;8.40;1.70;;;;;;;21.97;40.06;100250.84;6281951;22;20000;-76
2022/05/10 15:47:50;;;;;;;7.18;1.52;;;;;;;22.78;38.92;100266.94;6227739;22;19998;-75
2022/05/10 15:58:37;;;;;;;;;;;;;;;;;;;;;
2022/05/10 16:01:05;;;;;;;8.35;1.75;;;;;;;21.18;42.16;100220.34;6245039;22;20039;-76
2022/05/10 16:03:48;;;;;;;6.47;1.30;;;;;;;20.87;42.88;100231.94;6253138;22;20426;-76
2022/05/10 16:06:19;;;;;;;6.73;1.23;;;;;;;20.70;43.93;100250.34;6255826;22;20011;-78
2022/05/10 16:08:44;;;;;;;5.07;1.25;;;;;;;20.23;43.78;100219.97;6231690;22;20003;-78
2022/05/10 16:11:10;;;;;;;6.95;1.30;;;;;;;19.96;44.66;100210.16;6230295;22;20078;-78
2022/05/10 16:13:53;;;;;;;11.27;2.47;;;;;;;19.66;46.05;100208.13;6203748;22;20010;-78
2022/05/10 16:16:22;;;;;;;7.05;1.45;;;;;;;19.69;46.79;100235.19;6254930;22;20034;-76
2022/05/10 16:18:50;;;;;;;6.50;1.30;;;;;;;19.57;46.53;100215.69;6256124;22;20421;-77
2022/05/10 16:21:16;;;;;;;5.53;1.10;;;;;;;19.67;46.51;100234.75;6255796;22;20014;-77
2022/05/10 16:23:44;;;;;;;13.65;1.88;;;;;;;19.66;46.08;100241.41;6284027;22;20414;-77
2022/05/10 16:30:38;;;;;;;;;;;;;;;;;;;;;
2022/05/10 16:33:23;;;;;;;12.50;1.88;;;;;;;19.14;48.78;100258.19;6219564;22;20039;-78
2022/05/10 16:35:52;;;;;;;8.25;1.83;;;;;;;18.91;48.96;100240.91;6256698;22;20022;-77
2022/05/10 16:38:27;;;;;;;7.07;1.38;;;;;;;18.58;49.08;100222.81;6255488;22;20485;-76
2022/05/10 16:40:55;;;;;;;16.30;2.00;;;;;;;18.61;50.04;100252.63;6256626;22;20031;-78
2022/05/10 16:43:24;;;;;;;7.95;1.58;;;;;;;18.43;51.28;100223.31;6229267;22;20011;-77
2022/05/10 16:45:56;;;;;;;12.20;2.13;;;;;;;18.41;51.90;100214.50;6231150;22;20094;-77
2022/05/10 16:48:35;;;;;;;20.40;3.03;;;;;;;18.25;52.24;100209.44;6277546;22;20014;-76
2022/05/10 16:51:38;;;;;;;13.77;2.10;;;;;;;18.23;53.09;100228.31;6255896;22;20000;-76
2022/05/10 16:54:18;;;;;;;14.13;2.88;;;;;;;18.06;52.65;100195.88;6252602;22;20030;-78
2022/05/10 16:56:46;;;;;;;8.60;2.72;;;;;;;18.03;53.68;100212.31;6251361;22;20449;-75
2022/05/10 16:59:13;;;;;;;12.70;2.17;;;;;;;17.85;54.48;100201.16;6280592;22;20000;-77
2022/05/10 17:01:39;;;;;;;11.07;2.40;;;;;;;17.71;54.78;100183.88;6251896;22;20007;-77
2022/05/10 17:07:44;;;;;;;15.13;2.38;;;;;;;17.75;54.19;100169.06;6225516;22;20061;-75
2022/05/10 17:10:14;;;;;;;14.02;2.05;;;;;;;17.84;54.60;100185.69;6248853;22;19992;-76
2022/05/10 17:12:39;;;;;;;16.77;2.25;;;;;;;17.75;54.38;100187.63;6248515;22;20000;-76
2022/05/10 17:15:05;;;;;;;12.35;1.88;;;;;;;17.72;55.42;100204.84;6199404;22;20039;-76
2022/05/10 17:17:31;;;;;;;11.60;2.33;;;;;;;17.67;54.68;100193.94;6250510;22;19991;-76
2022/05/10 17:20:05;;;;;;;9.55;2.15;;;;;;;17.53;55.58;100194.84;6251777;22;20023;-75
2022/05/10 17:22:33;;;;;;;11.57;2.45;;;;;;;17.49;56.15;100202.16;6261144;22;20070;-78
2022/05/10 17:25:01;;;;;;;15.35;2.63;;;;;;;17.37;56.86;100190.88;6287393;22;20011;-75
2022/05/10 17:27:34;;;;;;;10.50;2.05;;;;;;;17.17;57.43;100198.59;6260146;22;20009;-76
2022/05/10 17:30:17;;;;;;;15.30;2.42;;;;;;;16.81;58.55;100176.56;6313356;22;19999;-76
2022/05/10 17:32:48;;;;;;;20.38;2.83;;;;;;;16.72;60.84;100204.09;6259335;22;20037;-74
2022/05/10 17:38:35;;;;;;;17.25;2.88;;;;;;;16.10;62.65;100186.16;6280807;22;20011;-77
2022/05/10 17:41:28;;;;;;;;;;;;;;;;;;;;;
2022/05/10 17:43:54;;;;;;;16.98;2.78;;;;;;;16.22;62.70;100194.72;6312989;22;20030;-78
2022/05/10 17:46:20;;;;;;;16.15;2.38;;;;;;;16.26;62.56;100166.53;6284987;22;20017;-77
2022/05/10 17:49:19;;;;;;;12.90;2.22;;;;;;;16.28;62.79;100161.50;6284967;22;20329;-78
2022/05/10 17:52:06;;;;;;;13.73;2.25;;;;;;;16.42;61.95;100176.06;6290110;22;20031;-76
2022/05/10 17:54:32;;;;;;;14.63;2.50;;;;;;;16.35;62.14;100137.06;6257319;22;20034;-76
2022/05/10 17:56:57;;;;;;;17.08;2.85;;;;;;;16.61;61.64;100161.28;6283099;22;20372;-76
2022/05/10 18:03:00;;;;;;;14.73;2.72;;;;;;;17.18;60.89;100175.34;6171563;23;20019;-76
2022/05/10 18:05:28;;;;;;;17.52;3.45;;;;;;;17.19;59.78;100152.09;6187970;23;20027;-76
2022/05/10 18:08:01;;;;;;;14.98;2.65;;;;;;;17.08;59.86;100156.25;6293201;22;20054;-76
2022/05/10 18:10:28;;;;;;;14.52;2.13;;;;;;;17.19;60.35;100185.25;6287633;22;20056;-77
2022/05/10 18:12:55;;;;;;;16.75;2.15;;;;;;;17.19;60.56;100187.22;6257349;22;20089;-77
2022/05/10 18:15:20;;;;;;;13.10;2.15;;;;;;;17.24;60.42;100200.88;6260229;22;20007;-77
2022/05/10 18:17:48;;;;;;;15.38;2.53;;;;;;;17.02;60.49;100185.16;6311595;22;20009;-76